createdAt,value
2018-03-17T00:00:25.734Z,8.45
2018-03-17T00:02:55.178Z,8.98
2018-03-17T00:05:24.440Z,6.70
2018-03-17T00:07:53.482Z,8.05
2018-03-17T00:10:22.403Z,8.20
2018-03-17T00:12:51.333Z,7.70
2018-03-17T00:15:20.713Z,8.25
2018-03-17T00:17:49.945Z,8.65
2018-03-17T00:20:19.165Z,8.85
2018-03-17T00:22:48.190Z,8.95
2018-03-17T00:25:17.784Z,9.07
2018-03-17T00:27:46.855Z,7.47
2018-03-17T00:30:15.971Z,8.85
2018-03-17T00:32:45.037Z,9.65
2018-03-17T00:35:16.041Z,9.77
2018-03-17T00:37:45.239Z,9.18
2018-03-17T00:40:14.554Z,8.55
2018-03-17T00:42:44.647Z,9.95
2018-03-17T00:45:14.314Z,10.57
2018-03-17T00:47:43.328Z,9.60
2018-03-17T00:50:15.255Z,8.95
2018-03-17T00:52:44.950Z,9.98
2018-03-17T00:55:14.577Z,10.20
2018-03-17T00:57:43.517Z,8.85
2018-03-17T01:00:12.288Z,5.72
2018-03-17T01:02:41.599Z,6.68
2018-03-17T01:05:10.515Z,8.13
2018-03-17T01:07:40.187Z,8.48
2018-03-17T01:10:09.459Z,8.90
2018-03-17T01:12:38.452Z,8.93
2018-03-17T01:15:07.766Z,9.07
2018-03-17T01:17:37.194Z,8.23
2018-03-17T01:20:07.416Z,7.80
2018-03-17T01:22:37.786Z,7.62
2018-03-17T01:25:07.728Z,9.40
2018-03-17T01:27:37.253Z,9.40
2018-03-17T01:30:06.703Z,9.50
2018-03-17T01:32:38.312Z,9.70
2018-03-17T01:35:07.421Z,9.77
2018-03-17T01:37:36.582Z,8.60
2018-03-17T01:40:07.175Z,9.65
2018-03-17T01:42:38.440Z,8.85
2018-03-17T01:45:08.043Z,9.00
2018-03-17T01:47:38.364Z,8.68
2018-03-17T01:50:07.215Z,9.10
2018-03-17T01:52:39.747Z,8.77
2018-03-17T01:55:09.144Z,8.63
2018-03-17T01:57:40.029Z,8.00
2018-03-17T02:00:12.556Z,8.48
2018-03-17T02:02:42.600Z,8.25
2018-03-17T02:05:13.575Z,8.00
2018-03-17T02:07:42.831Z,8.18
2018-03-17T02:10:13.361Z,8.45
2018-03-17T02:12:42.279Z,8.35
2018-03-17T02:15:13.476Z,8.07
2018-03-17T02:17:45.765Z,7.70
2018-03-17T02:20:19.046Z,7.68
2018-03-17T02:22:50.418Z,7.57
2018-03-17T02:25:20.459Z,7.40
2018-03-17T02:27:58.491Z,8.32
2018-03-17T02:30:29.431Z,8.30
2018-03-17T02:32:58.606Z,8.35
2018-03-17T02:35:30.443Z,7.97
2018-03-17T02:38:00.658Z,8.20
2018-03-17T02:40:30.405Z,7.97
2018-03-17T02:43:01.800Z,8.93
2018-03-17T02:45:31.577Z,7.43
2018-03-17T02:48:07.123Z,7.32
2018-03-17T02:50:40.140Z,9.07
2018-03-17T02:53:12.875Z,6.93
2018-03-17T02:55:44.044Z,7.62
2018-03-17T02:58:14.908Z,9.02
2018-03-17T03:00:45.817Z,8.82
2018-03-17T03:03:18.691Z,9.10
2018-03-17T03:05:48.412Z,8.90
2018-03-17T03:08:18.466Z,10.32
2018-03-17T03:10:50.777Z,9.40
2018-03-17T03:13:21.319Z,9.02
2018-03-17T03:15:50.409Z,8.93
2018-03-17T03:18:19.415Z,8.32
2018-03-17T03:20:49.241Z,9.70
2018-03-17T03:23:18.745Z,8.82
2018-03-17T03:25:50.662Z,9.52
2018-03-17T03:28:20.512Z,8.95
2018-03-17T03:30:51.239Z,8.68
2018-03-17T03:33:24.742Z,8.95
2018-03-17T03:35:56.561Z,7.82
2018-03-17T03:38:25.667Z,8.00
2018-03-17T03:40:56.429Z,7.60
2018-03-17T03:43:28.755Z,8.77
2018-03-17T03:45:58.197Z,7.05
2018-03-17T03:48:27.761Z,7.10
2018-03-17T03:50:57.028Z,7.87
2018-03-17T03:53:26.601Z,8.23
2018-03-17T03:55:59.202Z,7.00
2018-03-17T03:58:31.452Z,8.13
2018-03-17T04:01:00.834Z,6.80
2018-03-17T04:03:32.816Z,7.28
2018-03-17T04:06:02.532Z,6.95
2018-03-17T04:08:35.215Z,7.28
2018-03-17T04:11:10.220Z,6.95
2018-03-17T04:13:43.114Z,8.00
2018-03-17T04:16:12.490Z,6.25
2018-03-17T04:18:41.723Z,6.53
2018-03-17T04:21:11.301Z,8.50
2018-03-17T04:23:43.215Z,6.87
2018-03-17T04:26:13.120Z,9.32
2018-03-17T04:28:42.406Z,9.23
2018-03-17T04:31:17.133Z,9.13
2018-03-17T04:33:46.089Z,9.73
2018-03-17T04:36:15.506Z,9.30
2018-03-17T04:38:45.670Z,9.13
2018-03-17T04:41:18.315Z,9.60
2018-03-17T04:43:47.742Z,8.38
2018-03-17T04:46:17.250Z,8.30
2018-03-17T04:48:47.567Z,11.20
2018-03-17T04:51:20.200Z,9.50
2018-03-17T04:53:49.346Z,10.88
2018-03-17T04:56:19.096Z,10.85
2018-03-17T04:58:49.711Z,10.80
2018-03-17T05:01:23.707Z,9.18
2018-03-17T05:03:53.090Z,9.07
2018-03-17T05:06:24.457Z,10.75
2018-03-17T05:08:55.282Z,11.10
2018-03-17T05:11:28.105Z,10.73
2018-03-17T05:13:59.173Z,13.77
2018-03-17T05:16:30.110Z,11.48
2018-03-17T05:19:01.430Z,12.98
2018-03-17T05:21:30.587Z,11.40
2018-03-17T05:23:59.953Z,9.43
2018-03-17T05:26:29.160Z,7.62
2018-03-17T05:29:01.216Z,7.68
2018-03-17T05:31:30.490Z,7.15
2018-03-17T05:34:01.077Z,7.00
2018-03-17T05:36:30.785Z,6.82
2018-03-17T05:38:59.856Z,6.78
2018-03-17T05:41:30.607Z,6.40
2018-03-17T05:44:00.105Z,7.12
2018-03-17T05:46:34.990Z,6.28
2018-03-17T05:49:04.468Z,7.05
2018-03-17T05:51:33.939Z,6.18
2018-03-17T05:54:08.479Z,6.68
2018-03-17T05:56:38.513Z,6.93
2018-03-17T05:59:08.343Z,6.80
2018-03-17T06:01:41.629Z,6.50
2018-03-17T06:04:11.027Z,6.45
2018-03-17T06:06:42.608Z,6.95
2018-03-17T06:09:12.181Z,8.35
2018-03-17T06:11:41.849Z,8.25
2018-03-17T06:14:22.813Z,9.07
2018-03-17T06:16:53.848Z,12.98
2018-03-17T06:19:23.310Z,14.50
2018-03-17T06:21:52.375Z,12.82
2018-03-17T06:24:21.796Z,14.07
2018-03-17T06:26:51.432Z,11.45
2018-03-17T06:29:21.576Z,11.10
2018-03-17T06:31:50.763Z,10.95
2018-03-17T06:34:21.174Z,11.32
2018-03-17T06:36:54.764Z,7.47
2018-03-17T06:39:25.834Z,7.85
2018-03-17T06:41:57.493Z,7.45
2018-03-17T06:44:27.770Z,7.78
2018-03-17T06:46:57.136Z,8.00
2018-03-17T06:49:27.745Z,7.25
2018-03-17T06:51:57.266Z,7.85
2018-03-17T06:54:26.663Z,8.27
2018-03-17T06:56:57.844Z,8.57
2018-03-17T06:59:27.971Z,8.30
2018-03-17T07:01:57.892Z,8.65
2018-03-17T07:04:27.378Z,10.07
2018-03-17T07:06:56.753Z,10.27
2018-03-17T07:09:26.716Z,10.45
2018-03-17T07:11:57.141Z,11.82
2018-03-17T07:14:28.237Z,12.25
2018-03-17T07:17:01.807Z,11.88
2018-03-17T07:19:32.448Z,14.00
2018-03-17T07:22:04.825Z,20.15
2018-03-17T07:24:35.360Z,14.02
2018-03-17T07:27:07.328Z,13.50
2018-03-17T07:29:38.523Z,12.93
2018-03-17T07:32:08.442Z,11.90
2018-03-17T07:34:38.932Z,12.60
2018-03-17T07:37:08.953Z,11.32
2018-03-17T07:39:39.739Z,11.18
2018-03-17T07:42:09.950Z,10.52
2018-03-17T07:44:40.060Z,9.80
2018-03-17T07:47:09.157Z,9.55
2018-03-17T07:49:38.543Z,9.85
2018-03-17T07:52:08.407Z,9.23
2018-03-17T07:54:41.330Z,9.07
2018-03-17T07:57:10.613Z,9.52
2018-03-17T07:59:39.834Z,8.80
2018-03-17T08:02:09.652Z,8.18
2018-03-17T08:04:40.206Z,9.15
2018-03-17T08:07:10.362Z,9.60
2018-03-17T08:09:42.417Z,9.20
2018-03-17T08:12:11.725Z,9.35
2018-03-17T08:14:42.696Z,9.27
2018-03-17T08:17:15.895Z,10.05
2018-03-17T08:19:45.358Z,8.02
2018-03-17T08:22:16.698Z,9.13
2018-03-17T08:24:46.335Z,7.55
2018-03-17T08:27:15.393Z,7.78
2018-03-17T08:29:44.591Z,7.22
2018-03-17T08:32:14.440Z,7.85
2018-03-17T08:34:43.550Z,7.30
2018-03-17T08:37:12.897Z,8.43
2018-03-17T08:39:42.818Z,7.87
2018-03-17T08:42:12.439Z,6.72
2018-03-17T08:44:41.399Z,6.70
2018-03-17T08:47:11.007Z,6.78
2018-03-17T08:49:40.017Z,5.93
2018-03-17T08:52:09.238Z,6.03
2018-03-17T08:54:38.378Z,5.97
2018-03-17T08:57:07.856Z,6.32
2018-03-17T08:59:38.227Z,5.77
2018-03-17T09:02:08.103Z,5.75
2018-03-17T09:04:37.311Z,6.10
2018-03-17T09:07:07.906Z,5.23
2018-03-17T09:09:38.347Z,5.70
2018-03-17T09:12:07.866Z,4.73
2018-03-17T09:14:37.867Z,5.83
2018-03-17T09:17:07.180Z,5.40
2018-03-17T09:19:39.316Z,5.17
2018-03-17T09:22:09.040Z,5.60
2018-03-17T09:24:38.645Z,6.57
2018-03-17T09:27:08.356Z,6.00
2018-03-17T09:29:39.946Z,5.53
2018-03-17T09:32:08.735Z,6.10
2018-03-17T09:34:37.955Z,6.90
2018-03-17T09:37:06.762Z,8.60
2018-03-17T09:39:36.113Z,6.50
2018-03-17T09:42:05.945Z,6.37
2018-03-17T09:44:38.137Z,6.80
2018-03-17T09:47:07.355Z,4.97
2018-03-17T09:49:36.637Z,6.37
2018-03-17T09:52:05.688Z,5.23
2018-03-17T09:54:35.819Z,4.57
2018-03-17T09:57:05.236Z,5.13
2018-03-17T09:59:34.693Z,5.37
2018-03-17T10:02:05.964Z,4.97
2018-03-17T10:04:34.837Z,5.20
2018-03-17T10:07:04.796Z,5.27
2018-03-17T10:09:33.797Z,5.30
2018-03-17T10:12:04.555Z,5.23
2018-03-17T10:14:33.570Z,5.30
2018-03-17T10:17:02.932Z,4.93
2018-03-17T10:19:32.267Z,5.97
2018-03-17T10:22:03.453Z,5.67
2018-03-17T10:24:32.230Z,5.33
2018-03-17T10:27:02.555Z,5.27
2018-03-17T10:29:31.915Z,5.23
2018-03-17T10:32:02.622Z,5.57
2018-03-17T10:34:31.799Z,4.67
2018-03-17T10:37:01.376Z,6.50
2018-03-17T10:39:30.559Z,7.53
2018-03-17T10:41:59.397Z,6.53
2018-03-17T10:48:03.444Z,5.23
2018-03-17T10:50:36.407Z,5.03
2018-03-17T10:53:05.710Z,5.10
2018-03-17T10:55:35.297Z,4.33
2018-03-17T10:58:05.591Z,10.57
2018-03-17T11:00:35.222Z,11.67
2018-03-17T11:03:05.218Z,4.80
2018-03-17T11:05:34.965Z,6.03
2018-03-17T11:08:04.315Z,8.43
2018-03-17T11:10:36.531Z,6.77
2018-03-17T11:13:06.038Z,4.97
2018-03-17T11:15:36.000Z,5.53
2018-03-17T11:18:04.848Z,5.43
2018-03-17T11:22:09.347Z,4.57
2018-03-17T11:24:37.885Z,4.50
2018-03-17T11:27:06.072Z,4.55
2018-03-17T11:29:35.421Z,4.87
2018-03-17T11:32:05.641Z,4.13
2018-03-17T11:34:34.192Z,4.50
2018-03-17T11:37:03.638Z,4.83
2018-03-17T11:39:31.986Z,4.40
2018-03-17T11:42:01.840Z,4.80
2018-03-17T11:44:31.208Z,5.00
2018-03-17T11:47:00.047Z,4.60
2018-03-17T11:49:27.690Z,5.13
2018-03-17T11:51:56.859Z,4.20
2018-03-17T11:54:24.921Z,5.47
2018-03-17T11:56:52.721Z,5.10
2018-03-17T11:59:22.013Z,4.17
2018-03-17T12:01:49.906Z,3.87
2018-03-17T12:04:17.663Z,3.40
2018-03-17T12:06:45.725Z,3.60
2018-03-17T12:09:13.934Z,5.50
2018-03-17T12:11:41.491Z,6.23
2018-03-17T12:14:09.515Z,4.30
2018-03-17T12:16:38.387Z,4.17
2018-03-17T12:19:07.129Z,3.57
2018-03-17T12:21:36.182Z,4.17
2018-03-17T12:24:04.959Z,4.80
2018-03-17T12:26:33.363Z,5.93
2018-03-17T12:29:02.543Z,7.07
2018-03-17T12:31:30.621Z,3.93
2018-03-17T12:33:59.902Z,4.90
2018-03-17T12:36:27.727Z,4.27
2018-03-17T12:38:56.297Z,4.43
2018-03-17T12:41:24.204Z,5.43
2018-03-17T12:43:52.313Z,4.50
2018-03-17T12:46:20.580Z,6.27
2018-03-17T12:48:50.055Z,10.10
2018-03-17T12:51:18.132Z,12.93
2018-03-17T12:53:55.153Z,6.87
2018-03-17T12:56:23.358Z,6.00
2018-03-17T12:58:55.298Z,4.27
2018-03-17T13:01:24.257Z,3.60
2018-03-17T13:03:53.212Z,3.97
2018-03-17T13:06:21.711Z,4.73
2018-03-17T13:08:50.888Z,4.00
2018-03-17T13:11:23.858Z,3.70
2018-03-17T13:13:53.971Z,3.33
2018-03-17T13:16:21.829Z,3.30
2018-03-17T13:18:50.196Z,4.33
2018-03-17T13:21:18.045Z,4.00
2018-03-17T13:23:48.935Z,4.47
2018-03-17T13:26:16.948Z,6.30
2018-03-17T13:28:45.400Z,3.27
2018-03-17T13:31:15.421Z,3.03
2018-03-17T13:33:42.928Z,5.30
2018-03-17T13:36:16.297Z,5.10
2018-03-17T13:38:44.422Z,4.07
2018-03-17T13:41:12.271Z,4.00
2018-03-17T13:43:39.991Z,4.90
2018-03-17T13:46:07.845Z,7.90
2018-03-17T13:48:35.996Z,5.63
2018-03-17T13:51:03.291Z,5.23
2018-03-17T13:53:31.807Z,4.00
2018-03-17T13:55:59.769Z,3.43
2018-03-17T13:58:28.432Z,4.30
2018-03-17T14:00:56.286Z,6.10
2018-03-17T14:03:24.548Z,5.43
2018-03-17T14:05:51.918Z,6.80
2018-03-17T14:08:19.428Z,3.67
2018-03-17T14:10:47.012Z,4.67
2018-03-17T14:13:14.797Z,4.90
2018-03-17T14:15:42.168Z,3.93
2018-03-17T14:18:09.827Z,6.53
2018-03-17T14:20:37.421Z,4.90
2018-03-17T14:23:04.951Z,5.93
2018-03-17T14:25:32.555Z,4.17
2018-03-17T14:28:00.265Z,5.40
2018-03-17T14:30:27.861Z,5.93
2018-03-17T14:32:55.311Z,6.07
2018-03-17T14:35:23.011Z,5.57
2018-03-17T14:37:50.663Z,5.47
2018-03-17T14:40:18.096Z,3.83
2018-03-17T14:42:45.631Z,6.87
2018-03-17T14:45:13.165Z,3.53
2018-03-17T14:47:40.725Z,5.57
2018-03-17T14:50:08.464Z,5.00
2018-03-17T14:52:35.901Z,4.30
2018-03-17T14:55:03.535Z,4.57
2018-03-17T14:57:30.994Z,6.00
2018-03-17T14:59:58.547Z,4.60
2018-03-17T15:02:26.148Z,7.47
2018-03-17T15:04:53.881Z,7.53
2018-03-17T15:07:21.361Z,5.60
2018-03-17T15:09:48.958Z,7.73
2018-03-17T15:12:16.639Z,10.23
2018-03-17T15:14:44.340Z,4.97
2018-03-17T15:17:11.886Z,3.20
2018-03-17T15:19:39.448Z,5.00
2018-03-17T15:22:07.111Z,3.93
2018-03-17T15:24:34.732Z,6.03
2018-03-17T15:27:02.228Z,5.10
2018-03-17T15:29:29.787Z,6.87
2018-03-17T15:31:57.523Z,6.67
2018-03-17T15:34:25.118Z,4.67
2018-03-17T15:36:52.908Z,3.53
2018-03-17T15:39:20.538Z,5.17
2018-03-17T15:41:48.140Z,4.80
2018-03-17T15:44:15.795Z,3.03
2018-03-17T15:46:43.240Z,7.53
2018-03-17T15:49:11.001Z,7.67
2018-03-17T15:51:38.421Z,3.10
2018-03-17T15:54:06.238Z,4.10
2018-03-17T15:56:33.738Z,5.53
2018-03-17T15:59:01.542Z,4.97
2018-03-17T16:01:29.059Z,5.13
2018-03-17T16:03:56.437Z,3.00
2018-03-17T16:11:37.249Z,6.23
2018-03-17T16:14:05.108Z,5.97
2018-03-17T16:16:32.819Z,5.43
2018-03-17T16:19:00.605Z,4.40
2018-03-17T16:21:28.134Z,3.67
2018-03-17T16:23:55.649Z,9.67
2018-03-17T16:26:23.746Z,6.30
2018-03-17T16:28:51.247Z,15.87
2018-03-17T16:31:19.069Z,5.00
2018-03-17T16:33:46.563Z,12.07
2018-03-17T16:36:14.202Z,6.67
2018-03-17T16:38:41.897Z,8.30
2018-03-17T16:41:09.489Z,7.23
2018-03-17T16:43:37.230Z,8.00
2018-03-17T16:46:04.803Z,4.40
2018-03-17T16:48:32.525Z,4.83
2018-03-17T16:51:00.054Z,3.50
2018-03-17T16:53:27.504Z,10.07
2018-03-17T16:55:55.165Z,4.63
2018-03-17T16:58:22.785Z,3.93
2018-03-17T17:00:50.334Z,6.93
2018-03-17T17:03:17.759Z,5.73
2018-03-17T17:05:45.144Z,6.63
2018-03-17T17:08:12.605Z,5.37
2018-03-17T17:14:56.582Z,17.50
2018-03-17T17:17:24.316Z,7.87
2018-03-17T17:19:51.868Z,6.37
2018-03-17T17:22:19.292Z,4.90
2018-03-17T17:24:46.885Z,7.53
2018-03-17T17:27:14.581Z,9.47
2018-03-17T17:29:42.638Z,7.17
2018-03-17T17:32:10.588Z,5.37
2018-03-17T17:34:38.758Z,8.80
2018-03-17T17:37:06.223Z,9.13
2018-03-17T17:39:33.792Z,15.70
2018-03-17T17:42:01.485Z,42.33
2018-03-17T17:44:29.744Z,31.43
2018-03-17T17:46:57.832Z,33.43
2018-03-17T17:49:25.727Z,19.67
2018-03-17T17:51:53.701Z,16.73
2018-03-17T17:54:21.432Z,28.00
2018-03-17T17:56:49.176Z,15.60
2018-03-17T17:59:17.049Z,13.03
2018-03-17T18:01:45.666Z,20.30
2018-03-17T18:04:13.134Z,10.67
2018-03-17T18:06:40.986Z,24.70
2018-03-17T18:09:08.868Z,11.70
2018-03-17T18:11:36.638Z,7.23
2018-03-17T18:14:04.147Z,7.47
2018-03-17T18:16:32.828Z,4.83
2018-03-17T18:19:02.152Z,5.27
2018-03-17T18:21:29.812Z,6.30
2018-03-17T18:23:59.603Z,5.90
2018-03-17T18:26:27.756Z,7.40
2018-03-17T18:28:55.132Z,8.20
2018-03-17T18:31:23.050Z,9.83
2018-03-17T18:33:50.682Z,15.07
2018-03-17T18:36:18.684Z,14.00
2018-03-17T18:38:46.826Z,12.57
2018-03-17T18:41:14.707Z,31.37
2018-03-17T18:43:42.890Z,19.17
2018-03-17T18:46:11.005Z,28.43
2018-03-17T18:48:39.280Z,12.47
2018-03-17T18:51:07.168Z,9.60
2018-03-17T18:53:34.710Z,13.27
2018-03-17T18:56:02.341Z,23.07
2018-03-17T18:58:30.368Z,8.60
2018-03-17T19:00:57.901Z,12.20
2018-03-17T19:03:26.438Z,5.47
2018-03-17T19:05:56.196Z,11.67
2018-03-17T19:08:23.900Z,24.23
2018-03-17T19:10:51.749Z,12.90
2018-03-17T19:13:19.609Z,25.60
2018-03-17T19:15:47.453Z,16.50
2018-03-17T19:18:15.403Z,41.60
2018-03-17T19:20:43.326Z,7.57
2018-03-17T19:23:11.946Z,5.37
2018-03-17T19:25:39.524Z,3.17
2018-03-17T19:28:06.937Z,4.33
2018-03-17T19:30:34.368Z,3.67
2018-03-17T19:33:01.953Z,3.70
2018-03-17T19:35:30.530Z,3.90
2018-03-17T19:37:57.977Z,4.17
2018-03-17T19:40:25.801Z,3.63
2018-03-17T19:42:53.762Z,4.30
2018-03-17T19:45:21.493Z,3.80
2018-03-17T19:47:49.578Z,3.57
2018-03-17T19:50:17.906Z,4.57
2018-03-17T19:52:45.561Z,4.87
2018-03-17T19:55:13.022Z,4.50
2018-03-17T19:57:40.930Z,4.53
2018-03-17T20:00:08.597Z,4.90
2018-03-17T20:02:35.928Z,10.33
2018-03-17T20:05:03.551Z,6.03
2018-03-17T20:07:31.258Z,4.27
2018-03-17T20:09:59.313Z,4.33
2018-03-17T20:12:26.888Z,5.10
2018-03-17T20:14:54.859Z,4.60
2018-03-17T20:17:24.271Z,4.27
2018-03-17T20:19:51.748Z,4.13
2018-03-17T20:22:19.461Z,3.80
2018-03-17T20:24:48.301Z,4.43
2018-03-17T20:29:49.928Z,5.27
2018-03-17T20:32:17.587Z,4.27
2018-03-17T20:34:45.096Z,3.97
2018-03-17T20:37:12.788Z,4.10
2018-03-17T20:39:40.446Z,4.80
2018-03-17T20:42:07.996Z,3.77
2018-03-17T20:44:35.767Z,4.70
2018-03-17T20:47:03.876Z,4.40
2018-03-17T20:49:31.389Z,4.73
2018-03-17T20:52:00.301Z,3.80
2018-03-17T20:54:28.687Z,4.10
2018-03-17T20:56:56.405Z,4.13
2018-03-17T20:59:24.143Z,3.30
2018-03-17T21:01:52.633Z,4.33
2018-03-17T21:04:20.342Z,4.47
2018-03-17T21:06:47.936Z,5.23
2018-03-17T21:09:15.686Z,5.97
2018-03-17T21:11:43.189Z,8.73
2018-03-17T21:14:11.120Z,6.53
2018-03-17T21:16:38.997Z,4.73
2018-03-17T21:19:06.557Z,3.80
2018-03-17T21:21:34.073Z,7.53
2018-03-17T21:24:01.655Z,6.00
2018-03-17T21:26:29.364Z,4.93
2018-03-17T21:28:56.857Z,4.10
2018-03-17T21:31:24.370Z,5.53
2018-03-17T21:33:51.990Z,5.03
2018-03-17T21:36:19.615Z,8.67
2018-03-17T21:38:47.369Z,7.70
2018-03-17T21:41:14.804Z,7.27
2018-03-17T21:43:42.538Z,5.30
2018-03-17T21:46:10.093Z,8.93
2018-03-17T21:48:37.634Z,9.30
2018-03-17T21:51:05.475Z,4.17
2018-03-17T21:53:33.097Z,4.83
2018-03-17T21:56:00.766Z,16.83
2018-03-17T21:58:28.345Z,4.63
2018-03-17T22:00:55.909Z,9.13
2018-03-17T22:03:23.641Z,8.43
2018-03-17T22:05:51.224Z,5.23
2018-03-17T22:08:19.078Z,10.63
2018-03-17T22:10:46.828Z,5.90
2018-03-17T22:13:14.504Z,4.83
2018-03-17T22:15:42.404Z,6.07
2018-03-17T22:18:10.156Z,7.03
2018-03-17T22:20:37.799Z,7.87
2018-03-17T22:23:05.380Z,6.07
2018-03-17T22:25:33.105Z,7.73
2018-03-17T22:28:00.819Z,5.87
2018-03-17T22:30:29.337Z,5.83
2018-03-17T22:32:57.197Z,5.07
2018-03-17T22:35:24.777Z,6.67
2018-03-17T22:37:52.230Z,7.57
2018-03-17T22:40:19.989Z,7.03
2018-03-17T22:42:47.719Z,6.57
2018-03-17T22:45:15.077Z,6.17
2018-03-17T22:47:42.553Z,7.13
2018-03-17T22:50:10.289Z,7.33
2018-03-17T22:52:37.703Z,8.83
2018-03-17T22:55:05.289Z,7.07
2018-03-17T22:57:32.878Z,7.37
2018-03-17T23:00:00.342Z,7.73
2018-03-17T23:02:28.020Z,7.47
2018-03-17T23:04:55.932Z,8.77
2018-03-17T23:07:24.080Z,6.00
2018-03-17T23:09:52.088Z,6.03
2018-03-17T23:12:19.772Z,6.90
2018-03-17T23:14:47.240Z,6.87
2018-03-17T23:17:15.204Z,6.63
2018-03-17T23:19:42.800Z,6.80
2018-03-17T23:22:10.412Z,6.80
2018-03-17T23:24:38.199Z,7.80
2018-03-17T23:27:06.060Z,6.83
2018-03-17T23:29:33.539Z,7.00
2018-03-17T23:32:02.331Z,7.57
2018-03-17T23:34:29.844Z,8.77
2018-03-17T23:36:57.407Z,8.30
2018-03-17T23:39:24.962Z,7.87
2018-03-17T23:41:52.481Z,8.03
2018-03-17T23:44:19.910Z,8.23
2018-03-17T23:46:47.878Z,9.10
2018-03-17T23:49:15.255Z,8.40
2018-03-17T23:51:42.629Z,8.63
2018-03-17T23:54:10.185Z,9.37
2018-03-17T23:56:37.462Z,10.53
2018-03-17T23:59:04.985Z,10.13
